CheckWX is a tool to help pilots better visualize weather data.  It is not intended as a substitute for an official pre-flight weather briefing.

19:15:23 UTC

KBEA METAR
Beeville Municipal Airport
Beeville, Texas, USA
Current

20 mins ago

KBEA 261855Z AUTO 15012G16KT 10SM SCT038 BKN046 BKN050 33/20 A3001 RMK AO2 T03250204
Observed
May-26 @ 18:55 UTC
Wind
  • 150° at 12 KTS
  • Gusting to 16 KTS
Visibility
10 SM
Flight Rules
VFR
Cloud Levels
  • Scattered at 3,800' AGL
  • Broken at 4,600' AGL
  • Broken at 5,000' AGL
Temperature
33°C / 91°F
Dewpoint
20°C / 68°F
Heat Index
35°C / 95°F
Humidity
46%
Altimeter
30.01" Hg
Pressure
1016.22 hPa
Previous

40 mins ago

KBEA 261835Z AUTO 14014G20KT 10SM SCT040 SCT046 33/21 A3002 RMK AO2 T03300211
Observed
May-26 @ 18:35 UTC
Wind
  • 140° at 14 KTS
  • Gusting to 20 KTS
Visibility
10 SM
Flight Rules
VFR
Cloud Levels
  • Scattered at 4,000' AGL
  • Scattered at 4,600' AGL
Temperature
33°C / 91°F
Dewpoint
21°C / 70°F
Heat Index
36°C / 96°F
Humidity
49%
Altimeter
30.02" Hg
Pressure
1016.62 hPa
Previous

60 mins ago

KBEA 261815Z AUTO 16013G18KT 10SM SCT034 SCT040 SCT047 33/21 A3003 RMK AO2 T03310211
Observed
May-26 @ 18:15 UTC
Wind
  • 160° at 13 KTS
  • Gusting to 18 KTS
Visibility
10 SM
Flight Rules
VFR
Cloud Levels
  • Scattered at 3,400' AGL
  • Scattered at 4,000' AGL
  • Scattered at 4,700' AGL
Temperature
33°C / 91°F
Dewpoint
21°C / 70°F
Heat Index
36°C / 96°F
Humidity
49%
Altimeter
30.03" Hg
Pressure
1016.92 hPa